sensor_id;sensor_type;location;lat;lon;timestamp;P1;durP1;ratioP1;P2;durP2;ratioP2
1701;SDS011;848;48.354;10.064;2022-10-16T00:01:34;10.90;;;3.58;;
1701;SDS011;848;48.354;10.064;2022-10-16T00:04:01;10.02;;;3.30;;
1701;SDS011;848;48.354;10.064;2022-10-16T00:06:29;7.88;;;3.35;;
1701;SDS011;848;48.354;10.064;2022-10-16T00:08:56;9.52;;;3.50;;
1701;SDS011;848;48.354;10.064;2022-10-16T00:11:24;8.90;;;3.17;;
1701;SDS011;848;48.354;10.064;2022-10-16T00:13:56;7.45;;;3.25;;
1701;SDS011;848;48.354;10.064;2022-10-16T00:16:24;8.32;;;3.38;;
1701;SDS011;848;48.354;10.064;2022-10-16T00:18:51;9.70;;;3.15;;
1701;SDS011;848;48.354;10.064;2022-10-16T00:21:20;11.02;;;3.28;;
1701;SDS011;848;48.354;10.064;2022-10-16T00:23:50;8.48;;;3.13;;
1701;SDS011;848;48.354;10.064;2022-10-16T00:26:18;7.57;;;3.15;;
1701;SDS011;848;48.354;10.064;2022-10-16T00:28:45;9.63;;;3.47;;
1701;SDS011;848;48.354;10.064;2022-10-16T00:31:14;7.50;;;3.05;;
1701;SDS011;848;48.354;10.064;2022-10-16T00:33:42;6.97;;;2.70;;
1701;SDS011;848;48.354;10.064;2022-10-16T00:36:11;7.40;;;3.20;;
1701;SDS011;848;48.354;10.064;2022-10-16T00:38:39;10.63;;;3.90;;
1701;SDS011;848;48.354;10.064;2022-10-16T00:41:07;10.52;;;3.20;;
1701;SDS011;848;48.354;10.064;2022-10-16T00:43:39;8.32;;;3.25;;
1701;SDS011;848;48.354;10.064;2022-10-16T00:46:10;11.18;;;3.42;;
1701;SDS011;848;48.354;10.064;2022-10-16T00:48:42;7.72;;;3.63;;
1701;SDS011;848;48.354;10.064;2022-10-16T00:51:14;7.22;;;2.75;;
1701;SDS011;848;48.354;10.064;2022-10-16T00:53:43;7.45;;;3.25;;
1701;SDS011;848;48.354;10.064;2022-10-16T00:56:10;7.53;;;3.25;;
1701;SDS011;848;48.354;10.064;2022-10-16T00:58:37;8.77;;;3.63;;
1701;SDS011;848;48.354;10.064;2022-10-16T01:01:05;8.60;;;3.28;;
1701;SDS011;848;48.354;10.064;2022-10-16T01:03:34;7.65;;;2.88;;
1701;SDS011;848;48.354;10.064;2022-10-16T01:06:06;10.02;;;3.30;;
1701;SDS011;848;48.354;10.064;2022-10-16T01:08:53;8.10;;;2.67;;
1701;SDS011;848;48.354;10.064;2022-10-16T01:11:33;7.68;;;2.97;;
1701;SDS011;848;48.354;10.064;2022-10-16T01:14:06;9.18;;;3.45;;
1701;SDS011;848;48.354;10.064;2022-10-16T01:16:39;12.10;;;2.80;;
1701;SDS011;848;48.354;10.064;2022-10-16T01:19:16;7.82;;;3.25;;
1701;SDS011;848;48.354;10.064;2022-10-16T01:21:46;6.57;;;2.47;;
1701;SDS011;848;48.354;10.064;2022-10-16T01:24:19;8.60;;;2.90;;
1701;SDS011;848;48.354;10.064;2022-10-16T01:27:06;11.93;;;3.00;;
1701;SDS011;848;48.354;10.064;2022-10-16T01:29:37;7.07;;;2.70;;
1701;SDS011;848;48.354;10.064;2022-10-16T01:32:26;8.18;;;3.00;;
1701;SDS011;848;48.354;10.064;2022-10-16T01:34:58;7.43;;;3.17;;
1701;SDS011;848;48.354;10.064;2022-10-16T01:37:31;9.15;;;3.20;;
1701;SDS011;848;48.354;10.064;2022-10-16T01:40:01;9.88;;;3.00;;
1701;SDS011;848;48.354;10.064;2022-10-16T01:42:33;7.95;;;2.65;;
1701;SDS011;848;48.354;10.064;2022-10-16T01:45:03;8.70;;;3.47;;
1701;SDS011;848;48.354;10.064;2022-10-16T01:47:32;10.85;;;3.55;;
1701;SDS011;848;48.354;10.064;2022-10-16T01:50:05;12.85;;;3.25;;
1701;SDS011;848;48.354;10.064;2022-10-16T01:52:38;9.35;;;3.55;;
1701;SDS011;848;48.354;10.064;2022-10-16T01:55:09;7.90;;;3.33;;
1701;SDS011;848;48.354;10.064;2022-10-16T01:57:41;7.20;;;3.20;;
1701;SDS011;848;48.354;10.064;2022-10-16T02:00:12;7.80;;;3.05;;
1701;SDS011;848;48.354;10.064;2022-10-16T02:02:42;8.52;;;3.15;;
1701;SDS011;848;48.354;10.064;2022-10-16T02:05:16;8.07;;;2.88;;
1701;SDS011;848;48.354;10.064;2022-10-16T02:07:49;8.88;;;2.85;;
1701;SDS011;848;48.354;10.064;2022-10-16T02:10:16;8.65;;;3.30;;
1701;SDS011;848;48.354;10.064;2022-10-16T02:12:48;8.88;;;2.70;;
1701;SDS011;848;48.354;10.064;2022-10-16T02:15:20;7.95;;;3.67;;
1701;SDS011;848;48.354;10.064;2022-10-16T02:17:47;6.50;;;2.58;;
1701;SDS011;848;48.354;10.064;2022-10-16T02:20:14;7.65;;;2.90;;
1701;SDS011;848;48.354;10.064;2022-10-16T02:22:42;8.98;;;2.70;;
1701;SDS011;848;48.354;10.064;2022-10-16T02:25:15;6.90;;;3.00;;
1701;SDS011;848;48.354;10.064;2022-10-16T02:27:48;6.97;;;2.95;;
1701;SDS011;848;48.354;10.064;2022-10-16T02:30:21;6.85;;;2.90;;
1701;SDS011;848;48.354;10.064;2022-10-16T02:32:52;7.60;;;2.75;;
1701;SDS011;848;48.354;10.064;2022-10-16T02:35:21;12.75;;;3.75;;
1701;SDS011;848;48.354;10.064;2022-10-16T02:37:50;14.70;;;4.13;;
1701;SDS011;848;48.354;10.064;2022-10-16T02:40:18;6.78;;;2.65;;
1701;SDS011;848;48.354;10.064;2022-10-16T02:42:49;9.80;;;3.10;;
1701;SDS011;848;48.354;10.064;2022-10-16T02:45:17;8.25;;;3.45;;
1701;SDS011;848;48.354;10.064;2022-10-16T02:47:45;10.80;;;3.00;;
1701;SDS011;848;48.354;10.064;2022-10-16T02:50:12;7.43;;;3.10;;
1701;SDS011;848;48.354;10.064;2022-10-16T02:52:39;8.02;;;2.65;;
1701;SDS011;848;48.354;10.064;2022-10-16T02:55:06;7.30;;;3.20;;
1701;SDS011;848;48.354;10.064;2022-10-16T02:57:33;7.88;;;3.08;;
1701;SDS011;848;48.354;10.064;2022-10-16T03:00:03;6.97;;;3.25;;
1701;SDS011;848;48.354;10.064;2022-10-16T03:02:31;7.57;;;3.20;;
1701;SDS011;848;48.354;10.064;2022-10-16T03:04:58;10.20;;;3.15;;
1701;SDS011;848;48.354;10.064;2022-10-16T03:07:25;6.78;;;2.90;;
1701;SDS011;848;48.354;10.064;2022-10-16T03:09:51;12.05;;;3.00;;
1701;SDS011;848;48.354;10.064;2022-10-16T03:12:19;16.02;;;3.65;;
1701;SDS011;848;48.354;10.064;2022-10-16T03:14:46;9.27;;;3.15;;
1701;SDS011;848;48.354;10.064;2022-10-16T03:17:14;6.75;;;2.85;;
1701;SDS011;848;48.354;10.064;2022-10-16T03:19:42;7.70;;;2.80;;
1701;SDS011;848;48.354;10.064;2022-10-16T03:22:09;8.75;;;2.85;;
1701;SDS011;848;48.354;10.064;2022-10-16T03:24:36;8.32;;;3.10;;
1701;SDS011;848;48.354;10.064;2022-10-16T03:27:03;6.80;;;3.13;;
1701;SDS011;848;48.354;10.064;2022-10-16T03:29:30;7.88;;;3.03;;
1701;SDS011;848;48.354;10.064;2022-10-16T03:31:57;6.88;;;2.70;;
1701;SDS011;848;48.354;10.064;2022-10-16T03:34:26;9.10;;;2.90;;
1701;SDS011;848;48.354;10.064;2022-10-16T03:36:55;7.25;;;2.70;;
1701;SDS011;848;48.354;10.064;2022-10-16T03:39:22;8.70;;;3.45;;
1701;SDS011;848;48.354;10.064;2022-10-16T03:41:49;6.78;;;2.75;;
1701;SDS011;848;48.354;10.064;2022-10-16T03:44:16;7.25;;;2.90;;
1701;SDS011;848;48.354;10.064;2022-10-16T03:46:43;12.55;;;4.97;;
1701;SDS011;848;48.354;10.064;2022-10-16T03:49:10;8.85;;;3.60;;
1701;SDS011;848;48.354;10.064;2022-10-16T03:51:38;7.88;;;2.67;;
1701;SDS011;848;48.354;10.064;2022-10-16T03:54:05;7.82;;;2.80;;
1701;SDS011;848;48.354;10.064;2022-10-16T03:56:32;8.15;;;2.50;;
1701;SDS011;848;48.354;10.064;2022-10-16T03:58:59;11.90;;;2.78;;
1701;SDS011;848;48.354;10.064;2022-10-16T04:01:26;10.10;;;3.33;;
1701;SDS011;848;48.354;10.064;2022-10-16T04:03:56;9.77;;;2.90;;
1701;SDS011;848;48.354;10.064;2022-10-16T04:06:22;6.95;;;3.20;;
1701;SDS011;848;48.354;10.064;2022-10-16T04:08:51;7.90;;;2.78;;
1701;SDS011;848;48.354;10.064;2022-10-16T04:11:18;10.10;;;2.90;;
1701;SDS011;848;48.354;10.064;2022-10-16T04:13:44;7.15;;;3.00;;
1701;SDS011;848;48.354;10.064;2022-10-16T04:16:11;7.55;;;2.88;;
1701;SDS011;848;48.354;10.064;2022-10-16T04:18:39;7.93;;;2.70;;
1701;SDS011;848;48.354;10.064;2022-10-16T04:21:06;9.70;;;2.65;;
1701;SDS011;848;48.354;10.064;2022-10-16T04:23:33;6.68;;;2.55;;
1701;SDS011;848;48.354;10.064;2022-10-16T04:26:01;7.80;;;2.83;;
1701;SDS011;848;48.354;10.064;2022-10-16T04:28:28;13.02;;;4.18;;
1701;SDS011;848;48.354;10.064;2022-10-16T04:30:55;8.98;;;2.95;;
1701;SDS011;848;48.354;10.064;2022-10-16T04:33:22;8.15;;;2.45;;
1701;SDS011;848;48.354;10.064;2022-10-16T04:35:55;7.75;;;3.00;;
1701;SDS011;848;48.354;10.064;2022-10-16T04:38:22;8.02;;;2.60;;
1701;SDS011;848;48.354;10.064;2022-10-16T04:40:49;9.93;;;2.58;;
1701;SDS011;848;48.354;10.064;2022-10-16T04:43:17;7.57;;;2.63;;
1701;SDS011;848;48.354;10.064;2022-10-16T04:45:45;6.40;;;2.70;;
1701;SDS011;848;48.354;10.064;2022-10-16T04:48:12;10.32;;;2.85;;
1701;SDS011;848;48.354;10.064;2022-10-16T04:50:39;7.25;;;2.72;;
1701;SDS011;848;48.354;10.064;2022-10-16T04:53:06;7.25;;;2.63;;
1701;SDS011;848;48.354;10.064;2022-10-16T04:55:38;8.05;;;2.50;;
1701;SDS011;848;48.354;10.064;2022-10-16T04:58:07;12.38;;;3.10;;
1701;SDS011;848;48.354;10.064;2022-10-16T05:00:35;7.93;;;2.50;;
1701;SDS011;848;48.354;10.064;2022-10-16T05:03:03;8.38;;;2.88;;
1701;SDS011;848;48.354;10.064;2022-10-16T05:05:32;10.48;;;2.85;;
1701;SDS011;848;48.354;10.064;2022-10-16T05:07:59;6.72;;;2.60;;
1701;SDS011;848;48.354;10.064;2022-10-16T05:10:26;5.90;;;2.13;;
1701;SDS011;848;48.354;10.064;2022-10-16T05:12:53;8.15;;;3.00;;
1701;SDS011;848;48.354;10.064;2022-10-16T05:15:20;7.38;;;2.78;;
1701;SDS011;848;48.354;10.064;2022-10-16T05:17:53;6.75;;;3.00;;
1701;SDS011;848;48.354;10.064;2022-10-16T05:20:19;9.52;;;3.35;;
1701;SDS011;848;48.354;10.064;2022-10-16T05:22:46;9.32;;;3.15;;
1701;SDS011;848;48.354;10.064;2022-10-16T05:25:13;7.72;;;2.92;;
1701;SDS011;848;48.354;10.064;2022-10-16T05:27:40;10.98;;;3.00;;
1701;SDS011;848;48.354;10.064;2022-10-16T05:30:07;11.75;;;2.90;;
1701;SDS011;848;48.354;10.064;2022-10-16T05:32:35;8.77;;;3.30;;
1701;SDS011;848;48.354;10.064;2022-10-16T05:35:03;11.88;;;3.40;;
1701;SDS011;848;48.354;10.064;2022-10-16T05:37:31;7.20;;;3.35;;
1701;SDS011;848;48.354;10.064;2022-10-16T05:39:58;7.75;;;2.90;;
1701;SDS011;848;48.354;10.064;2022-10-16T05:42:24;7.32;;;3.28;;
1701;SDS011;848;48.354;10.064;2022-10-16T05:44:51;6.65;;;3.08;;
1701;SDS011;848;48.354;10.064;2022-10-16T05:47:18;10.60;;;3.75;;
1701;SDS011;848;48.354;10.064;2022-10-16T05:49:46;13.27;;;3.33;;
1701;SDS011;848;48.354;10.064;2022-10-16T05:52:14;8.18;;;2.90;;
1701;SDS011;848;48.354;10.064;2022-10-16T05:54:41;7.78;;;2.75;;
1701;SDS011;848;48.354;10.064;2022-10-16T05:57:08;10.40;;;3.17;;
1701;SDS011;848;48.354;10.064;2022-10-16T05:59:37;9.00;;;3.03;;
1701;SDS011;848;48.354;10.064;2022-10-16T06:02:04;8.75;;;3.60;;
1701;SDS011;848;48.354;10.064;2022-10-16T06:04:31;7.85;;;2.65;;
1701;SDS011;848;48.354;10.064;2022-10-16T06:06:58;9.13;;;3.67;;
1701;SDS011;848;48.354;10.064;2022-10-16T06:09:27;7.95;;;2.55;;
1701;SDS011;848;48.354;10.064;2022-10-16T06:11:54;7.32;;;3.45;;
1701;SDS011;848;48.354;10.064;2022-10-16T06:14:21;7.70;;;2.83;;
1701;SDS011;848;48.354;10.064;2022-10-16T06:16:48;16.85;;;8.48;;
1701;SDS011;848;48.354;10.064;2022-10-16T06:19:15;14.18;;;8.20;;
1701;SDS011;848;48.354;10.064;2022-10-16T06:21:42;17.38;;;10.00;;
1701;SDS011;848;48.354;10.064;2022-10-16T06:24:09;13.75;;;7.47;;
1701;SDS011;848;48.354;10.064;2022-10-16T06:26:38;11.90;;;5.47;;
1701;SDS011;848;48.354;10.064;2022-10-16T06:29:05;10.73;;;4.30;;
1701;SDS011;848;48.354;10.064;2022-10-16T06:31:31;8.88;;;4.45;;
1701;SDS011;848;48.354;10.064;2022-10-16T06:33:58;9.90;;;3.80;;
1701;SDS011;848;48.354;10.064;2022-10-16T06:36:26;8.35;;;4.35;;
1701;SDS011;848;48.354;10.064;2022-10-16T06:38:53;7.80;;;3.42;;
1701;SDS011;848;48.354;10.064;2022-10-16T06:41:21;7.90;;;2.78;;
1701;SDS011;848;48.354;10.064;2022-10-16T06:43:50;8.48;;;3.15;;
1701;SDS011;848;48.354;10.064;2022-10-16T06:46:18;6.65;;;2.90;;
1701;SDS011;848;48.354;10.064;2022-10-16T06:48:47;6.95;;;3.30;;
1701;SDS011;848;48.354;10.064;2022-10-16T06:51:14;12.68;;;2.90;;
1701;SDS011;848;48.354;10.064;2022-10-16T06:53:43;11.23;;;3.50;;
1701;SDS011;848;48.354;10.064;2022-10-16T06:56:12;10.38;;;5.40;;
1701;SDS011;848;48.354;10.064;2022-10-16T06:58:41;8.68;;;4.80;;
1701;SDS011;848;48.354;10.064;2022-10-16T07:01:10;9.82;;;5.65;;
1701;SDS011;848;48.354;10.064;2022-10-16T07:03:38;11.02;;;4.10;;
1701;SDS011;848;48.354;10.064;2022-10-16T07:06:05;12.30;;;6.45;;
1701;SDS011;848;48.354;10.064;2022-10-16T07:08:34;11.20;;;4.80;;
1701;SDS011;848;48.354;10.064;2022-10-16T07:11:03;8.20;;;3.10;;
1701;SDS011;848;48.354;10.064;2022-10-16T07:13:32;7.22;;;3.30;;
1701;SDS011;848;48.354;10.064;2022-10-16T07:16:03;11.20;;;3.42;;
1701;SDS011;848;48.354;10.064;2022-10-16T07:18:32;10.85;;;3.03;;
1701;SDS011;848;48.354;10.064;2022-10-16T07:21:03;10.07;;;3.20;;
1701;SDS011;848;48.354;10.064;2022-10-16T07:23:32;7.40;;;3.45;;
1701;SDS011;848;48.354;10.064;2022-10-16T07:26:00;8.10;;;3.70;;
1701;SDS011;848;48.354;10.064;2022-10-16T07:28:27;8.27;;;2.95;;
1701;SDS011;848;48.354;10.064;2022-10-16T07:30:54;7.60;;;3.55;;
1701;SDS011;848;48.354;10.064;2022-10-16T07:33:21;7.25;;;3.28;;
1701;SDS011;848;48.354;10.064;2022-10-16T07:35:50;10.57;;;4.22;;
1701;SDS011;848;48.354;10.064;2022-10-16T07:38:18;10.75;;;3.95;;
1701;SDS011;848;48.354;10.064;2022-10-16T07:40:46;8.27;;;3.70;;
1701;SDS011;848;48.354;10.064;2022-10-16T07:43:14;16.42;;;10.82;;
1701;SDS011;848;48.354;10.064;2022-10-16T07:45:48;15.15;;;11.07;;
1701;SDS011;848;48.354;10.064;2022-10-16T07:48:15;15.27;;;6.07;;
1701;SDS011;848;48.354;10.064;2022-10-16T07:50:43;9.80;;;4.25;;
1701;SDS011;848;48.354;10.064;2022-10-16T07:53:12;10.95;;;4.00;;
1701;SDS011;848;48.354;10.064;2022-10-16T07:55:39;7.53;;;3.30;;
1701;SDS011;848;48.354;10.064;2022-10-16T07:58:06;12.35;;;3.00;;
1701;SDS011;848;48.354;10.064;2022-10-16T08:00:34;17.00;;;4.03;;
1701;SDS011;848;48.354;10.064;2022-10-16T08:03:02;18.45;;;3.88;;
1701;SDS011;848;48.354;10.064;2022-10-16T08:05:29;6.70;;;2.42;;
1701;SDS011;848;48.354;10.064;2022-10-16T08:07:57;7.30;;;2.60;;
1701;SDS011;848;48.354;10.064;2022-10-16T08:10:26;7.88;;;2.60;;
1701;SDS011;848;48.354;10.064;2022-10-16T08:12:54;6.20;;;2.30;;
1701;SDS011;848;48.354;10.064;2022-10-16T08:15:21;6.55;;;2.80;;
1701;SDS011;848;48.354;10.064;2022-10-16T08:17:57;10.05;;;2.97;;
1701;SDS011;848;48.354;10.064;2022-10-16T08:20:25;8.43;;;3.28;;
1701;SDS011;848;48.354;10.064;2022-10-16T08:22:53;8.88;;;3.30;;
1701;SDS011;848;48.354;10.064;2022-10-16T08:25:20;13.82;;;3.05;;
1701;SDS011;848;48.354;10.064;2022-10-16T08:27:49;8.80;;;2.95;;
1701;SDS011;848;48.354;10.064;2022-10-16T08:30:16;11.95;;;3.38;;
1701;SDS011;848;48.354;10.064;2022-10-16T08:32:44;8.73;;;3.42;;
1701;SDS011;848;48.354;10.064;2022-10-16T08:35:12;7.70;;;3.80;;
1701;SDS011;848;48.354;10.064;2022-10-16T08:37:40;8.45;;;3.08;;
1701;SDS011;848;48.354;10.064;2022-10-16T08:40:11;10.45;;;3.28;;
1701;SDS011;848;48.354;10.064;2022-10-16T08:42:53;17.33;;;4.97;;
1701;SDS011;848;48.354;10.064;2022-10-16T08:45:44;6.90;;;3.25;;
1701;SDS011;848;48.354;10.064;2022-10-16T08:48:22;9.98;;;3.78;;
1701;SDS011;848;48.354;10.064;2022-10-16T08:50:52;8.57;;;3.10;;
1701;SDS011;848;48.354;10.064;2022-10-16T08:53:20;8.27;;;2.60;;
1701;SDS011;848;48.354;10.064;2022-10-16T08:55:51;8.40;;;3.58;;
1701;SDS011;848;48.354;10.064;2022-10-16T08:58:21;7.13;;;3.17;;
1701;SDS011;848;48.354;10.064;2022-10-16T09:00:50;9.18;;;3.00;;
1701;SDS011;848;48.354;10.064;2022-10-16T09:03:32;12.23;;;3.35;;
1701;SDS011;848;48.354;10.064;2022-10-16T09:06:10;8.68;;;2.65;;
1701;SDS011;848;48.354;10.064;2022-10-16T09:08:58;10.15;;;3.95;;
1701;SDS011;848;48.354;10.064;2022-10-16T09:11:41;7.90;;;3.60;;
1701;SDS011;848;48.354;10.064;2022-10-16T09:14:23;13.48;;;4.30;;
1701;SDS011;848;48.354;10.064;2022-10-16T09:17:14;9.52;;;4.10;;
1701;SDS011;848;48.354;10.064;2022-10-16T09:19:54;8.07;;;3.00;;
1701;SDS011;848;48.354;10.064;2022-10-16T09:22:29;9.27;;;2.78;;
1701;SDS011;848;48.354;10.064;2022-10-16T09:24:59;7.75;;;3.38;;
1701;SDS011;848;48.354;10.064;2022-10-16T09:27:27;12.02;;;3.20;;
1701;SDS011;848;48.354;10.064;2022-10-16T09:29:56;13.38;;;3.78;;
1701;SDS011;848;48.354;10.064;2022-10-16T09:32:24;8.82;;;3.65;;
1701;SDS011;848;48.354;10.064;2022-10-16T09:34:52;10.95;;;3.90;;
1701;SDS011;848;48.354;10.064;2022-10-16T09:37:22;7.50;;;2.85;;
1701;SDS011;848;48.354;10.064;2022-10-16T09:39:51;9.50;;;3.25;;
1701;SDS011;848;48.354;10.064;2022-10-16T09:42:19;16.13;;;4.45;;
1701;SDS011;848;48.354;10.064;2022-10-16T09:44:49;7.93;;;3.08;;
1701;SDS011;848;48.354;10.064;2022-10-16T09:47:21;10.55;;;2.88;;
1701;SDS011;848;48.354;10.064;2022-10-16T09:49:50;6.57;;;2.63;;
1701;SDS011;848;48.354;10.064;2022-10-16T09:52:18;7.88;;;3.00;;
1701;SDS011;848;48.354;10.064;2022-10-16T09:54:49;7.18;;;2.42;;
1701;SDS011;848;48.354;10.064;2022-10-16T09:57:17;7.07;;;2.92;;
1701;SDS011;848;48.354;10.064;2022-10-16T09:59:47;12.95;;;3.85;;
1701;SDS011;848;48.354;10.064;2022-10-16T10:02:15;10.60;;;3.70;;
1701;SDS011;848;48.354;10.064;2022-10-16T10:04:47;6.50;;;2.47;;
1701;SDS011;848;48.354;10.064;2022-10-16T10:07:17;7.97;;;3.47;;
1701;SDS011;848;48.354;10.064;2022-10-16T10:09:47;13.02;;;4.15;;
1701;SDS011;848;48.354;10.064;2022-10-16T10:12:16;8.32;;;2.80;;
1701;SDS011;848;48.354;10.064;2022-10-16T10:14:46;7.75;;;2.50;;
1701;SDS011;848;48.354;10.064;2022-10-16T10:17:16;10.70;;;3.05;;
1701;SDS011;848;48.354;10.064;2022-10-16T10:19:47;6.28;;;2.20;;
1701;SDS011;848;48.354;10.064;2022-10-16T10:22:27;11.68;;;2.67;;
1701;SDS011;848;48.354;10.064;2022-10-16T10:25:00;7.55;;;2.50;;
1701;SDS011;848;48.354;10.064;2022-10-16T10:27:45;7.47;;;2.92;;
1701;SDS011;848;48.354;10.064;2022-10-16T10:30:19;9.82;;;2.50;;
1701;SDS011;848;48.354;10.064;2022-10-16T10:32:51;8.60;;;2.50;;
1701;SDS011;848;48.354;10.064;2022-10-16T10:35:42;7.80;;;2.53;;
1701;SDS011;848;48.354;10.064;2022-10-16T10:38:17;7.03;;;2.55;;
1701;SDS011;848;48.354;10.064;2022-10-16T10:40:52;6.28;;;2.40;;
1701;SDS011;848;48.354;10.064;2022-10-16T10:43:30;7.50;;;2.88;;
1701;SDS011;848;48.354;10.064;2022-10-16T10:46:09;6.03;;;2.40;;
1701;SDS011;848;48.354;10.064;2022-10-16T10:48:49;7.30;;;2.45;;
1701;SDS011;848;48.354;10.064;2022-10-16T10:51:27;7.05;;;2.35;;
1701;SDS011;848;48.354;10.064;2022-10-16T10:54:02;6.85;;;2.70;;
1701;SDS011;848;48.354;10.064;2022-10-16T10:56:42;13.65;;;3.00;;
1701;SDS011;848;48.354;10.064;2022-10-16T10:59:30;10.98;;;2.80;;
1701;SDS011;848;48.354;10.064;2022-10-16T11:02:09;8.68;;;2.95;;
1701;SDS011;848;48.354;10.064;2022-10-16T11:04:47;7.97;;;2.75;;
1701;SDS011;848;48.354;10.064;2022-10-16T11:07:25;9.02;;;3.40;;
1701;SDS011;848;48.354;10.064;2022-10-16T11:09:56;13.75;;;3.90;;
1701;SDS011;848;48.354;10.064;2022-10-16T11:12:29;7.25;;;2.30;;
1701;SDS011;848;48.354;10.064;2022-10-16T11:15:02;7.13;;;2.55;;
1701;SDS011;848;48.354;10.064;2022-10-16T11:17:38;6.72;;;2.95;;
1701;SDS011;848;48.354;10.064;2022-10-16T11:20:12;7.90;;;2.63;;
1701;SDS011;848;48.354;10.064;2022-10-16T11:22:44;8.00;;;2.67;;
1701;SDS011;848;48.354;10.064;2022-10-16T11:25:16;8.25;;;2.75;;
1701;SDS011;848;48.354;10.064;2022-10-16T11:27:47;8.63;;;2.47;;
1701;SDS011;848;48.354;10.064;2022-10-16T11:30:18;7.57;;;2.05;;
1701;SDS011;848;48.354;10.064;2022-10-16T11:32:54;6.88;;;2.40;;
1701;SDS011;848;48.354;10.064;2022-10-16T11:35:35;8.52;;;2.60;;
1701;SDS011;848;48.354;10.064;2022-10-16T11:38:12;7.30;;;2.20;;
1701;SDS011;848;48.354;10.064;2022-10-16T11:40:45;7.75;;;2.40;;
1701;SDS011;848;48.354;10.064;2022-10-16T11:43:17;8.15;;;2.45;;
1701;SDS011;848;48.354;10.064;2022-10-16T11:45:51;7.97;;;2.63;;
1701;SDS011;848;48.354;10.064;2022-10-16T11:48:23;10.90;;;2.67;;
1701;SDS011;848;48.354;10.064;2022-10-16T11:50:54;6.50;;;2.00;;
1701;SDS011;848;48.354;10.064;2022-10-16T11:53:31;9.48;;;2.90;;
1701;SDS011;848;48.354;10.064;2022-10-16T11:56:08;10.25;;;2.40;;
1701;SDS011;848;48.354;10.064;2022-10-16T11:58:41;8.05;;;2.20;;
1701;SDS011;848;48.354;10.064;2022-10-16T12:01:17;7.25;;;2.10;;
1701;SDS011;848;48.354;10.064;2022-10-16T12:03:51;6.93;;;2.35;;
1701;SDS011;848;48.354;10.064;2022-10-16T12:06:37;8.18;;;2.50;;
1701;SDS011;848;48.354;10.064;2022-10-16T12:09:10;6.40;;;2.50;;
1701;SDS011;848;48.354;10.064;2022-10-16T12:11:41;14.63;;;2.72;;
1701;SDS011;848;48.354;10.064;2022-10-16T12:14:22;6.30;;;2.08;;
1701;SDS011;848;48.354;10.064;2022-10-16T12:17:02;8.90;;;2.10;;
1701;SDS011;848;48.354;10.064;2022-10-16T12:19:56;8.00;;;2.42;;
1701;SDS011;848;48.354;10.064;2022-10-16T12:22:25;10.25;;;2.40;;
1701;SDS011;848;48.354;10.064;2022-10-16T12:24:55;6.60;;;2.15;;
1701;SDS011;848;48.354;10.064;2022-10-16T12:27:24;7.00;;;2.40;;
1701;SDS011;848;48.354;10.064;2022-10-16T12:29:55;5.65;;;1.80;;
1701;SDS011;848;48.354;10.064;2022-10-16T12:32:25;6.95;;;1.92;;
1701;SDS011;848;48.354;10.064;2022-10-16T12:34:55;8.63;;;2.22;;
1701;SDS011;848;48.354;10.064;2022-10-16T12:37:23;10.20;;;2.75;;
1701;SDS011;848;48.354;10.064;2022-10-16T12:39:53;6.00;;;2.20;;
1701;SDS011;848;48.354;10.064;2022-10-16T12:42:23;7.45;;;2.47;;
1701;SDS011;848;48.354;10.064;2022-10-16T12:44:59;11.88;;;2.58;;
1701;SDS011;848;48.354;10.064;2022-10-16T12:47:36;9.35;;;2.00;;
1701;SDS011;848;48.354;10.064;2022-10-16T12:52:54;8.30;;;1.95;;
1701;SDS011;848;48.354;10.064;2022-10-16T12:55:22;6.18;;;1.60;;
1701;SDS011;848;48.354;10.064;2022-10-16T12:58:05;5.30;;;1.70;;
1701;SDS011;848;48.354;10.064;2022-10-16T13:00:43;6.30;;;2.20;;
1701;SDS011;848;48.354;10.064;2022-10-16T13:03:23;5.90;;;2.25;;
1701;SDS011;848;48.354;10.064;2022-10-16T13:06:14;7.95;;;2.10;;
1701;SDS011;848;48.354;10.064;2022-10-16T13:08:55;8.48;;;2.10;;
1701;SDS011;848;48.354;10.064;2022-10-16T13:11:45;6.43;;;1.95;;
1701;SDS011;848;48.354;10.064;2022-10-16T13:14:27;9.90;;;1.45;;
1701;SDS011;848;48.354;10.064;2022-10-16T13:17:09;5.70;;;1.60;;
1701;SDS011;848;48.354;10.064;2022-10-16T13:19:42;4.90;;;1.20;;
1701;SDS011;848;48.354;10.064;2022-10-16T13:22:18;4.95;;;1.10;;
1701;SDS011;848;48.354;10.064;2022-10-16T13:24:55;5.35;;;1.15;;
1701;SDS011;848;48.354;10.064;2022-10-16T13:27:38;7.15;;;1.40;;
1701;SDS011;848;48.354;10.064;2022-10-16T13:30:11;6.35;;;1.42;;
1701;SDS011;848;48.354;10.064;2022-10-16T13:32:43;4.90;;;1.20;;
1701;SDS011;848;48.354;10.064;2022-10-16T13:35:18;5.55;;;1.45;;
1701;SDS011;848;48.354;10.064;2022-10-16T13:37:47;5.25;;;1.42;;
1701;SDS011;848;48.354;10.064;2022-10-16T13:40:18;5.18;;;1.25;;
1701;SDS011;848;48.354;10.064;2022-10-16T13:42:48;5.85;;;1.92;;
1701;SDS011;848;48.354;10.064;2022-10-16T13:45:19;5.97;;;1.50;;
1701;SDS011;848;48.354;10.064;2022-10-16T13:47:46;5.13;;;1.50;;
1701;SDS011;848;48.354;10.064;2022-10-16T13:50:14;4.93;;;1.35;;
1701;SDS011;848;48.354;10.064;2022-10-16T13:52:42;5.40;;;1.38;;
1701;SDS011;848;48.354;10.064;2022-10-16T13:55:10;5.82;;;1.73;;
1701;SDS011;848;48.354;10.064;2022-10-16T13:57:38;6.70;;;1.00;;
1701;SDS011;848;48.354;10.064;2022-10-16T14:00:18;6.43;;;1.80;;
1701;SDS011;848;48.354;10.064;2022-10-16T14:02:49;6.53;;;1.90;;
1701;SDS011;848;48.354;10.064;2022-10-16T14:05:20;6.07;;;1.80;;
1701;SDS011;848;48.354;10.064;2022-10-16T14:07:48;6.35;;;1.40;;
1701;SDS011;848;48.354;10.064;2022-10-16T14:10:20;7.13;;;1.48;;
1701;SDS011;848;48.354;10.064;2022-10-16T14:12:54;5.30;;;1.50;;
1701;SDS011;848;48.354;10.064;2022-10-16T14:15:23;5.75;;;1.75;;
1701;SDS011;848;48.354;10.064;2022-10-16T14:17:51;5.90;;;1.60;;
1701;SDS011;848;48.354;10.064;2022-10-16T14:20:19;5.88;;;1.50;;
1701;SDS011;848;48.354;10.064;2022-10-16T14:22:57;5.43;;;1.63;;
1701;SDS011;848;48.354;10.064;2022-10-16T14:25:26;6.53;;;1.50;;
1701;SDS011;848;48.354;10.064;2022-10-16T14:28:02;6.00;;;1.30;;
1701;SDS011;848;48.354;10.064;2022-10-16T14:30:32;5.30;;;1.50;;
1701;SDS011;848;48.354;10.064;2022-10-16T14:33:02;7.53;;;1.70;;
1701;SDS011;848;48.354;10.064;2022-10-16T14:35:30;5.30;;;1.70;;
1701;SDS011;848;48.354;10.064;2022-10-16T14:37:59;5.75;;;1.60;;
1701;SDS011;848;48.354;10.064;2022-10-16T14:40:28;7.10;;;1.45;;
1701;SDS011;848;48.354;10.064;2022-10-16T14:42:56;6.55;;;1.88;;
1701;SDS011;848;48.354;10.064;2022-10-16T14:45:24;6.55;;;1.35;;
1701;SDS011;848;48.354;10.064;2022-10-16T14:47:56;5.20;;;1.30;;
1701;SDS011;848;48.354;10.064;2022-10-16T14:50:25;5.20;;;1.70;;
1701;SDS011;848;48.354;10.064;2022-10-16T14:52:52;5.13;;;1.55;;
1701;SDS011;848;48.354;10.064;2022-10-16T14:55:19;6.50;;;1.73;;
1701;SDS011;848;48.354;10.064;2022-10-16T14:57:46;8.45;;;2.50;;
1701;SDS011;848;48.354;10.064;2022-10-16T15:00:15;7.68;;;1.50;;
1701;SDS011;848;48.354;10.064;2022-10-16T15:02:44;6.43;;;1.60;;
1701;SDS011;848;48.354;10.064;2022-10-16T15:05:14;6.97;;;1.73;;
1701;SDS011;848;48.354;10.064;2022-10-16T15:07:43;6.32;;;2.05;;
1701;SDS011;848;48.354;10.064;2022-10-16T15:10:11;7.93;;;1.88;;
1701;SDS011;848;48.354;10.064;2022-10-16T15:12:39;7.57;;;1.67;;
1701;SDS011;848;48.354;10.064;2022-10-16T15:15:19;7.60;;;1.83;;
1701;SDS011;848;48.354;10.064;2022-10-16T15:17:56;5.80;;;1.70;;
1701;SDS011;848;48.354;10.064;2022-10-16T15:20:27;5.80;;;1.70;;
1701;SDS011;848;48.354;10.064;2022-10-16T15:22:55;14.65;;;1.67;;
1701;SDS011;848;48.354;10.064;2022-10-16T15:25:30;5.20;;;1.65;;
1701;SDS011;848;48.354;10.064;2022-10-16T15:27:59;7.35;;;1.50;;
1701;SDS011;848;48.354;10.064;2022-10-16T15:30:28;6.28;;;1.55;;
1701;SDS011;848;48.354;10.064;2022-10-16T15:32:54;5.65;;;1.52;;
1701;SDS011;848;48.354;10.064;2022-10-16T15:35:22;6.07;;;1.55;;
1701;SDS011;848;48.354;10.064;2022-10-16T15:37:50;6.68;;;2.50;;